Time;durP1;ratioP1;P1;durP2;ratioP2;P2;SDS_P1;SDS_P2;PMS_P1;PMS_P2;Temp;Humidity;BMP_temperature;BMP_pressure;BME280_temperature;BME280_humidity;BME280_pressure;Samples;Min_cycle;Max_cycle;Signal;HPM_P1;HPM_P2
2023/08/17 00:09:57;;;;;;;8.57;7.70;;;;;;;16.01;100.00;96094.75;7431359;19;20420;-95
2023/08/17 00:12:35;;;;;;;8.57;7.13;;;;;;;16.25;100.00;96188.34;7433938;19;20360;-96
2023/08/17 00:15:09;;;;;;;8.07;7.30;;;;;;;15.92;100.00;96183.81;7430930;19;20353;-94
2023/08/17 00:17:45;;;;;;;8.60;7.90;;;;;;;16.14;100.00;96189.38;7431236;19;20356;-96
2023/08/17 00:20:28;;;;;;;8.50;7.70;;;;;;;16.26;100.00;96178.44;7430370;19;20384;-96
2023/08/17 00:23:05;;;;;;;7.97;7.27;;;;;;;16.49;100.00;96195.06;7429951;19;20379;-96
2023/08/17 00:25:47;;;;;;;8.67;7.97;;;;;;;16.44;100.00;96181.31;7428243;19;20433;-94
2023/08/17 00:28:20;;;;;;;7.77;7.00;;;;;;;16.82;100.00;96226.28;7428794;19;20426;-94
2023/08/17 00:31:00;;;;;;;7.83;7.13;;;;;;;16.07;100.00;96178.66;7427481;19;20454;-94
2023/08/17 00:33:36;;;;;;;8.37;7.37;;;;;;;15.93;100.00;96179.25;7430971;19;20393;-94
2023/08/17 00:36:08;;;;;;;8.00;7.43;;;;;;;16.25;100.00;96206.25;7433148;19;20397;-94
2023/08/17 00:38:37;;;;;;;8.40;7.60;;;;;;;15.82;100.00;96088.47;7431034;19;20423;-94
2023/08/17 00:41:21;;;;;;;8.67;7.83;;;;;;;17.13;100.00;96315.84;7428138;19;20377;-94
2023/08/17 00:44:00;;;;;;;10.17;7.50;;;;;;;16.44;100.00;96230.13;7431786;19;20384;-96
2023/08/17 00:46:43;;;;;;;7.87;6.90;;;;;;;15.35;100.00;96076.50;7427920;19;20405;-96
2023/08/17 00:49:14;;;;;;;11.07;7.87;;;;;;;16.07;100.00;96197.31;7428431;19;20392;-94
2023/08/17 00:51:47;;;;;;;10.57;7.47;;;;;;;16.09;100.00;96184.38;7430797;19;20391;-93
2023/08/17 00:54:25;;;;;;;11.53;7.43;;;;;;;15.74;100.00;96113.53;7429980;19;20400;-94
2023/08/17 00:56:59;;;;;;;9.30;6.70;;;;;;;16.20;100.00;96191.38;7428291;19;20389;-95
2023/08/17 01:00:11;;;;;;;;;;;;;;;;;;;;;
2023/08/17 01:03:39;;;;;;;7.37;6.67;;;;;;;16.73;100.00;96273.13;7430014;19;20437;-95
2023/08/17 11:12:10;;;;;;;;;;;;;;;;;;;;;
2023/08/17 11:15:10;;;;;;;;;;;;;;;;;;;;;
2023/08/17 11:18:10;;;;;;;11.00;10.10;;;;;;;27.60;100.00;96338.97;7436334;19;20435;-96
2023/08/17 11:21:14;;;;;;;10.00;9.20;;;;;;;27.85;100.00;96337.44;7432810;19;20418;-96
2023/08/17 11:25:12;;;;;;;;;;;;;;;;;;;;;
2023/08/17 11:33:04;;;;;;;11.73;10.83;;;;;;;27.25;100.00;96334.69;7431391;19;20371;-96
2023/08/17 11:37:28;;;;;;;10.87;9.97;;;;;;;27.39;100.00;96313.28;7435546;19;20361;-96
2023/08/17 11:47:32;;;;;;;11.13;10.13;;;;;;;27.03;100.00;96060.41;7429736;19;20345;-96
2023/08/17 11:50:32;;;;;;;10.70;10.00;;;;;;;28.28;100.00;96298.66;7429001;19;20436;-96
2023/08/17 12:00:57;;;;;;;;;;;;;;;;;;;;;
2023/08/17 12:07:39;;;;;;;10.43;9.53;;;;;;;27.20;95.88;96037.31;7433687;19;20416;-96
2023/08/17 12:10:37;;;;;;;;;;;;;;;;;;;;;
2023/08/17 12:13:39;;;;;;;10.57;9.67;;;;;;;27.67;91.58;96104.34;7434265;19;20360;-96
2023/08/17 12:16:38;;;;;;;9.47;8.83;;;;;;;29.45;86.89;96320.69;7435136;19;20393;-96
2023/08/17 12:19:44;;;;;;;10.10;9.30;;;;;;;28.95;87.49;96169.41;7428820;19;20392;-96
2023/08/17 12:22:38;;;;;;;10.73;9.93;;;;;;;28.29;83.37;96054.63;7432841;19;20360;-96
2023/08/17 13:22:52;;;;;;;10.67;9.40;;;;;;;29.75;68.63;95972.84;3116053;19;17105164;-96
2023/08/17 13:26:24;;;;;;;9.80;8.90;;;;;;;32.14;68.84;96254.13;7469276;19;20104;-96
2023/08/17 13:29:47;;;;;;;9.93;9.03;;;;;;;31.14;67.78;96179.88;7466082;19;20456;-96
2023/08/17 13:32:42;;;;;;;9.90;9.30;;;;;;;29.42;69.21;95978.28;7467930;19;20360;-96
2023/08/17 13:35:35;;;;;;;9.70;8.90;;;;;;;29.40;71.32;95980.72;7450207;19;20348;-96
2023/08/17 13:38:55;;;;;;;9.87;9.10;;;;;;;30.16;74.88;96222.28;7434729;19;20361;-96
2023/08/17 13:41:54;;;;;;;9.77;8.97;;;;;;;30.49;70.92;96216.88;7437934;19;20369;-96
2023/08/17 13:45:01;;;;;;;9.33;8.73;;;;;;;30.00;72.17;96168.78;7434460;19;20392;-96
2023/08/17 13:48:17;;;;;;;9.80;9.13;;;;;;;31.17;70.02;96228.09;7433236;19;20398;-96
2023/08/17 13:51:32;;;;;;;10.33;9.33;;;;;;;32.10;68.17;96222.72;7437368;19;20360;-96
2023/08/17 13:54:40;;;;;;;10.10;9.20;;;;;;;32.74;68.02;96225.53;7436635;19;20385;-96
2023/08/17 13:57:43;;;;;;;10.53;9.77;;;;;;;32.55;65.85;96230.44;7434089;19;20368;-95
2023/08/17 14:03:51;;;;;;;10.33;9.63;;;;;;;31.47;66.44;96086.09;7437819;19;20379;-96
2023/08/17 14:14:05;;;;;;;9.03;8.43;;;;;;;32.21;62.82;96081.34;7432558;19;20382;-96
2023/08/17 14:26:25;;;;;;;8.90;8.30;;;;;;;31.83;63.12;96076.03;7419234;19;20452;-96
2023/08/17 14:29:41;;;;;;;9.47;8.67;;;;;;;31.74;61.05;95990.13;7434219;19;20432;-96
2023/08/17 14:35:32;;;;;;;10.87;9.87;;;;;;;30.66;63.88;96000.88;7439198;19;20316;-96
2023/08/17 14:38:04;;;;;;;11.03;10.07;;;;;;;30.73;63.72;96014.16;7433282;19;20372;-96
2023/08/17 14:40:45;;;;;;;10.47;9.30;;;;;;;30.28;64.32;95989.41;7436819;19;20438;-96
2023/08/17 14:43:23;;;;;;;9.97;9.17;;;;;;;31.94;64.73;96095.34;7435308;19;20388;-95
2023/08/17 14:46:26;;;;;;;8.47;7.60;;;;;;;32.30;62.05;96174.31;7428225;19;20404;-94
2023/08/17 14:49:04;;;;;;;10.73;9.87;;;;;;;31.62;65.07;96064.22;7405123;19;20381;-93
2023/08/17 14:51:47;;;;;;;10.23;9.53;;;;;;;31.40;62.06;95966.22;7408687;19;20428;-94
2023/08/17 14:54:36;;;;;;;10.37;9.10;;;;;;;31.26;61.98;96082.50;7411140;19;20388;-94
2023/08/17 14:57:10;;;;;;;10.00;9.17;;;;;;;30.55;63.17;96051.25;7411156;19;20388;-93
2023/08/17 15:00:03;;;;;;;8.90;8.00;;;;;;;30.81;62.91;96028.97;7404988;19;20385;-93
2023/08/17 15:02:43;;;;;;;10.40;9.50;;;;;;;29.80;65.61;95976.94;7408606;19;20373;-94
2023/08/17 15:05:37;;;;;;;9.40;8.67;;;;;;;31.17;63.70;96031.38;7407696;19;20364;-94
2023/08/17 15:08:21;;;;;;;9.00;8.40;;;;;;;30.55;64.27;95947.53;7410383;19;20395;-94
2023/08/17 15:10:50;;;;;;;9.20;8.30;;;;;;;30.38;63.47;96033.78;7407331;19;20420;-93
2023/08/17 15:13:24;;;;;;;8.60;7.90;;;;;;;30.34;64.41;95986.81;7410298;19;20934;-94
2023/08/17 15:16:05;;;;;;;12.77;8.87;;;;;;;30.37;63.09;95938.75;7407018;19;20380;-94
2023/08/17 15:18:42;;;;;;;16.53;9.63;;;;;;;31.16;61.77;95975.22;7407962;19;20392;-94
2023/08/17 15:21:26;;;;;;;9.60;8.63;;;;;;;31.65;60.73;95992.19;7408240;19;20405;-94
2023/08/17 15:24:08;;;;;;;8.80;8.00;;;;;;;31.82;60.71;95937.78;7405956;19;20381;-94
2023/08/17 15:26:45;;;;;;;8.87;8.20;;;;;;;32.05;59.84;96049.00;7406301;19;20388;-95
2023/08/17 15:29:19;;;;;;;8.87;8.23;;;;;;;30.90;63.44;95941.50;7404967;19;20361;-95
2023/08/17 15:31:50;;;;;;;7.73;7.07;;;;;;;29.52;63.54;95924.53;7403108;19;20392;-94
2023/08/17 15:34:25;;;;;;;7.37;6.87;;;;;;;28.61;62.85;95933.63;7410479;19;20387;-93
2023/08/17 15:37:00;;;;;;;7.90;7.10;;;;;;;28.65;62.32;95940.41;7406050;19;20372;-94
2023/08/17 15:39:40;;;;;;;9.27;6.63;;;;;;;28.52;64.10;95943.28;7405529;19;20372;-93
2023/08/17 15:42:33;;;;;;;8.43;7.73;;;;;;;28.68;63.57;96023.84;7407507;19;20368;-93
2023/08/17 15:45:10;;;;;;;7.97;7.47;;;;;;;27.81;63.80;95954.34;7404383;19;20389;-93
2023/08/17 15:47:54;;;;;;;7.47;6.87;;;;;;;27.57;63.85;95918.00;7406737;19;20409;-94
2023/08/17 15:50:39;;;;;;;7.20;6.57;;;;;;;27.67;64.00;95923.06;7402311;19;20418;-94
2023/08/17 15:53:24;;;;;;;8.03;6.67;;;;;;;28.75;64.50;95958.25;7403750;19;20381;-94
2023/08/17 16:11:30;;;;;;;;;;;;;;;;;;;;;
2023/08/17 16:14:18;;;;;;;7.67;7.07;;;;;;;27.26;77.11;95950.63;7406900;19;20365;-94
2023/08/17 16:16:51;;;;;;;7.00;6.47;;;;;;;27.44;78.49;96012.41;7407062;19;20372;-94
2023/08/17 16:19:33;;;;;;;7.00;6.43;;;;;;;26.79;81.87;95978.63;7406718;19;20388;-93
2023/08/17 16:22:07;;;;;;;12.37;7.90;;;;;;;26.62;84.56;96018.75;7401233;19;20369;-93
2023/08/17 16:24:35;;;;;;;13.37;9.33;;;;;;;25.79;86.57;95944.00;7399592;19;20420;-93
2023/08/17 16:27:19;;;;;;;16.10;9.37;;;;;;;26.05;90.05;95998.16;7401605;19;20373;-93
2023/08/17 16:29:50;;;;;;;13.43;8.30;;;;;;;26.01;94.06;95998.25;7405019;19;20479;-93
2023/08/17 16:32:21;;;;;;;7.73;7.03;;;;;;;25.37;100.00;95918.19;7406880;19;20380;-93
2023/08/17 16:35:03;;;;;;;7.63;7.03;;;;;;;26.12;100.00;96028.47;7413899;19;20397;-92
2023/08/17 16:41:25;;;;;;;7.20;6.70;;;;;;;25.13;100.00;95923.91;7403300;19;20434;-92
2023/08/17 16:44:22;;;;;;;9.53;8.83;;;;;;;26.02;100.00;96116.28;7407273;19;20376;-92
2023/08/17 16:47:12;;;;;;;8.60;8.00;;;;;;;25.07;100.00;96008.75;7409871;19;20361;-92
2023/08/17 16:50:01;;;;;;;8.20;7.60;;;;;;;25.27;100.00;96145.44;7404016;19;20385;-93
2023/08/17 16:53:28;;;;;;;9.47;7.90;;;;;;;24.40;100.00;96176.91;7401891;19;20429;-92
2023/08/17 16:57:00;;;;;;;8.93;8.10;;;;;;;23.94;100.00;96107.63;7400892;19;20373;-93
2023/08/17 17:03:47;;;;;;;7.73;7.00;;;;;;;22.39;100.00;96013.78;7396895;19;20388;-96
2023/08/17 17:06:14;;;;;;;7.17;6.47;;;;;;;22.90;100.00;96093.44;7397590;19;20372;-92
2023/08/17 17:08:56;;;;;;;7.10;6.50;;;;;;;21.89;100.00;96083.78;7398565;19;20389;-92
2023/08/17 17:11:32;;;;;;;8.10;5.10;;;;;;;21.38;100.00;96040.63;7402541;19;20412;-92
2023/08/17 17:13:59;;;;;;;6.33;5.03;;;;;;;21.26;100.00;96078.06;7403345;19;20478;-92
2023/08/17 17:16:31;;;;;;;5.10;4.70;;;;;;;20.99;100.00;96034.94;7427581;19;20373;-94
2023/08/17 17:19:03;;;;;;;5.70;5.30;;;;;;;21.43;100.00;96138.97;7433160;19;20392;-94
2023/08/17 17:21:31;;;;;;;5.90;4.63;;;;;;;21.14;100.00;96087.38;7431753;19;20417;-95
2023/08/17 17:23:59;;;;;;;5.37;4.87;;;;;;;20.35;100.00;95985.25;7433071;19;20380;-96
2023/08/17 17:26:29;;;;;;;5.87;5.37;;;;;;;21.19;100.00;96103.81;7422005;19;20940;-93
2023/08/17 17:29:00;;;;;;;5.70;5.10;;;;;;;20.11;100.00;96002.31;7409028;19;20389;-92
2023/08/17 17:31:33;;;;;;;7.43;5.40;;;;;;;21.35;100.00;96224.34;7408069;19;20437;-93
2023/08/17 17:34:01;;;;;;;5.23;4.70;;;;;;;21.05;100.00;96152.38;7410829;19;20396;-92
2023/08/17 17:36:29;;;;;;;5.00;4.60;;;;;;;20.01;100.00;96012.75;7411448;19;20384;-93
2023/08/17 17:39:07;;;;;;;4.97;4.40;;;;;;;21.23;100.00;96206.75;7415899;19;20373;-94
2023/08/17 17:41:34;;;;;;;7.47;4.73;;;;;;;19.70;100.00;95995.72;7412438;19;20400;-92
2023/08/17 17:44:02;;;;;;;5.30;4.90;;;;;;;19.68;100.00;95998.03;7421925;19;20385;-93
2023/08/17 17:46:30;;;;;;;5.80;5.33;;;;;;;20.24;100.00;96133.00;7420950;19;20368;-93
2023/08/17 17:49:00;;;;;;;6.93;5.77;;;;;;;19.68;100.00;96051.69;7412598;19;20392;-93
2023/08/17 17:51:35;;;;;;;6.13;5.63;;;;;;;20.06;100.00;96181.44;7407040;19;20400;-92
2023/08/17 17:54:09;;;;;;;8.10;5.73;;;;;;;19.26;100.00;96108.94;7414474;19;20380;-92
2023/08/17 17:56:45;;;;;;;9.33;7.20;;;;;;;20.31;100.00;96309.47;7411872;19;20404;-93
2023/08/17 17:59:16;;;;;;;12.27;8.67;;;;;;;20.37;100.00;96332.81;7410321;19;20385;-93
2023/08/17 18:01:51;;;;;;;7.40;6.70;;;;;;;19.28;100.00;96215.78;7410131;19;20404;-93
2023/08/17 18:04:19;;;;;;;9.73;5.80;;;;;;;18.89;100.00;96213.88;7414586;19;20387;-92
2023/08/17 18:06:59;;;;;;;5.40;4.67;;;;;;;18.73;100.00;96241.03;7415670;19;20883;-93
2023/08/17 18:09:39;;;;;;;4.47;4.07;;;;;;;18.84;100.00;96279.34;7409177;19;20384;-92
2023/08/17 18:12:10;;;;;;;5.23;4.57;;;;;;;18.82;100.00;96300.34;7405017;19;20365;-92
2023/08/17 18:14:45;;;;;;;6.20;4.77;;;;;;;17.66;100.00;96199.75;7404779;19;20384;-93
2023/08/17 18:17:17;;;;;;;5.93;4.57;;;;;;;18.97;100.00;96440.53;7404571;19;20421;-93
2023/08/17 18:19:45;;;;;;;5.13;4.60;;;;;;;17.53;100.00;96226.03;7407744;19;20391;-93
2023/08/17 18:22:20;;;;;;;5.50;4.47;;;;;;;17.96;100.00;96335.97;7407992;19;20385;-92
2023/08/17 18:24:57;;;;;;;10.27;4.73;;;;;;;17.52;100.00;96235.19;7413442;19;20408;-93
2023/08/17 18:27:39;;;;;;;7.13;5.03;;;;;;;17.80;100.00;96282.00;7416457;19;20384;-93
2023/08/17 18:30:13;;;;;;;6.43;4.80;;;;;;;18.59;100.00;96401.69;7416686;19;20392;-93
2023/08/17 18:33:11;;;;;;;5.13;4.33;;;;;;;17.87;100.00;96306.09;7423317;19;20393;-93
2023/08/17 18:40:27;;;;;;;5.83;4.23;;;;;;;18.10;100.00;96515.34;7409087;19;20438;-92
2023/08/17 18:43:15;;;;;;;5.33;3.37;;;;;;;17.48;100.00;96378.00;7405051;19;20385;-93
2023/08/17 18:46:40;;;;;;;4.73;3.87;;;;;;;17.58;100.00;96503.00;7401656;19;20393;-91
2023/08/17 18:50:42;;;;;;;;;;;;;;;;;;;;;
2023/08/17 18:55:00;;;;;;;4.60;3.13;;;;;;;17.34;100.00;96507.69;7406652;19;20741;-92
2023/08/17 18:58:47;;;;;;;4.83;3.20;;;;;;;15.87;100.00;96290.78;7404389;19;20368;-91
2023/08/17 19:02:30;;;;;;;6.53;3.73;;;;;;;16.37;100.00;96282.63;7403906;19;20431;-94
2023/08/17 19:05:53;;;;;;;4.03;3.63;;;;;;;16.54;100.00;96263.38;7407986;19;20385;-93
2023/08/17 19:12:51;;;;;;;4.33;2.90;;;;;;;16.68;100.00;96252.84;7407108;19;20426;-93
2023/08/17 19:16:00;;;;;;;5.30;3.50;;;;;;;16.95;100.00;96312.25;7404259;19;20369;-93
2023/08/17 19:19:35;;;;;;;3.20;2.90;;;;;;;18.05;100.00;96493.50;7404840;19;20436;-93
2023/08/17 19:39:20;;;;;;;4.10;3.70;;;;;;;18.27;100.00;96490.59;7416232;19;20395;-93
2023/08/17 19:42:38;;;;;;;6.27;4.30;;;;;;;18.32;100.00;96473.44;7415374;19;20391;-93
2023/08/17 19:50:09;;;;;;;5.67;4.00;;;;;;;17.15;100.00;96262.06;7417144;19;20392;-93
2023/08/17 19:54:13;;;;;;;7.97;4.50;;;;;;;17.23;100.00;96279.69;7423386;19;20380;-96
2023/08/17 19:58:04;;;;;;;4.80;3.63;;;;;;;16.97;100.00;96240.53;7422164;19;20394;-93
